Time;durP1;ratioP1;P1;durP2;ratioP2;P2;SDS_P1;SDS_P2;PMS_P1;PMS_P2;Temp;Humidity;BMP_temperature;BMP_pressure;BME280_temperature;BME280_humidity;BME280_pressure;Samples;Min_cycle;Max_cycle;Signal;HPM_P1;HPM_P2
2023/09/23 00:02:05;;;;;;;13.27;7.40;;;;;;;;;;6082281;23;20215;-93
2023/09/23 00:05:12;;;;;;;13.38;7.07;;;;;;;;;;6082400;23;20171;-94
2023/09/23 00:08:18;;;;;;;12.73;6.85;;;;;;;;;;6082103;23;20186;-92
2023/09/23 00:11:24;;;;;;;11.10;6.85;;;;;;;;;;6081539;23;20179;-94
2023/09/23 00:14:31;;;;;;;13.45;7.47;;;;;;;;;;6080766;23;20163;-93
2023/09/23 00:17:38;;;;;;;15.45;8.23;;;;;;;;;;6064294;23;20239;-93
2023/09/23 00:20:43;;;;;;;12.60;7.28;;;;;;;;;;6065273;23;20178;-94
2023/09/23 00:23:48;;;;;;;15.68;7.35;;;;;;;;;;6064191;23;20186;-91
2023/09/23 00:26:58;;;;;;;12.38;6.88;;;;;;;;;;6063781;23;20194;-91
2023/09/23 00:30:07;;;;;;;12.60;7.57;;;;;;;;;;6065674;23;20202;-91
2023/09/23 00:33:16;;;;;;;14.60;7.60;;;;;;;;;;6065779;23;20178;-92
2023/09/23 00:36:22;;;;;;;14.45;7.20;;;;;;;;;;6065762;23;20175;-92
2023/09/23 00:39:27;;;;;;;12.93;7.15;;;;;;;;;;6082623;23;20199;-93
2023/09/23 00:42:32;;;;;;;13.60;7.20;;;;;;;;;;6065649;23;20170;-93
2023/09/23 00:45:38;;;;;;;12.10;7.15;;;;;;;;;;6065704;23;20212;-95
2023/09/23 00:48:44;;;;;;;15.00;8.07;;;;;;;;;;6080819;23;20198;-94
2023/09/23 00:51:49;;;;;;;16.05;6.97;;;;;;;;;;6080909;23;20174;-93
2023/09/23 00:54:55;;;;;;;11.82;7.40;;;;;;;;;;6080844;23;20508;-94
2023/09/23 00:58:01;;;;;;;14.93;7.90;;;;;;;;;;6064486;23;20189;-92
2023/09/23 01:01:08;;;;;;;12.10;7.57;;;;;;;;;;6064439;23;20177;-93
2023/09/23 01:04:15;;;;;;;13.20;7.35;;;;;;;;;;6080988;23;20171;-94
2023/09/23 01:07:21;;;;;;;13.95;7.22;;;;;;;;;;6079582;23;20666;-93
2023/09/23 01:10:28;;;;;;;12.40;7.30;;;;;;;;;;6081090;23;20284;-93
2023/09/23 01:13:33;;;;;;;13.48;7.60;;;;;;;;;;6081310;23;20174;-92
2023/09/23 01:16:39;;;;;;;15.13;7.68;;;;;;;;;;6063902;23;20174;-91
2023/09/23 01:19:46;;;;;;;16.33;8.50;;;;;;;;;;6080678;23;20203;-91
2023/09/23 01:22:54;;;;;;;19.25;8.50;;;;;;;;;;6062189;23;20174;-90
2023/09/23 01:25:59;;;;;;;14.60;8.30;;;;;;;;;;6078767;23;20249;-90
2023/09/23 01:29:11;;;;;;;15.43;8.20;;;;;;;;;;6062679;23;20199;-92
2023/09/23 01:32:21;;;;;;;10.63;6.85;;;;;;;;;;6078847;23;20278;-90
2023/09/23 01:35:26;;;;;;;12.80;7.78;;;;;;;;;;6079314;23;20189;-93
2023/09/23 01:38:32;;;;;;;15.32;8.13;;;;;;;;;;6078996;23;20652;-91
2023/09/23 01:41:37;;;;;;;14.32;8.70;;;;;;;;;;6077978;23;20174;-90
2023/09/23 01:44:44;;;;;;;15.95;8.27;;;;;;;;;;6079483;23;20178;-93
2023/09/23 01:47:49;;;;;;;14.65;7.63;;;;;;;;;;6078415;23;20763;-93
2023/09/23 01:50:54;;;;;;;14.27;8.73;;;;;;;;;;6079407;23;20170;-93
2023/09/23 01:54:03;;;;;;;14.52;8.68;;;;;;;;;;6077767;23;20174;-93
2023/09/23 01:57:12;;;;;;;15.02;8.80;;;;;;;;;;6062037;23;20174;-91
2023/09/23 02:00:28;;;;;;;18.60;8.70;;;;;;;;;;6079596;23;20189;-89
2023/09/23 02:03:34;;;;;;;18.00;8.52;;;;;;;;;;6079581;23;20595;-92
2023/09/23 02:06:42;;;;;;;16.90;9.00;;;;;;;;;;6063181;23;20171;-93
2023/09/23 02:09:48;;;;;;;14.20;8.07;;;;;;;;;;6063182;23;20173;-90
2023/09/23 02:12:55;;;;;;;12.18;7.32;;;;;;;;;;6063440;23;20170;-93
2023/09/23 02:16:01;;;;;;;13.85;7.38;;;;;;;;;;6062342;23;20175;-93
2023/09/23 02:19:06;;;;;;;14.77;8.05;;;;;;;;;;6079548;23;20174;-94
2023/09/23 02:22:11;;;;;;;14.32;7.78;;;;;;;;;;6079809;23;20166;-91
2023/09/23 02:25:18;;;;;;;15.23;8.00;;;;;;;;;;6061795;23;20170;-93
2023/09/23 02:28:23;;;;;;;16.30;8.43;;;;;;;;;;6066851;23;20198;-92
2023/09/23 02:31:29;;;;;;;14.60;7.97;;;;;;;;;;6063213;23;20215;-94
2023/09/23 02:34:34;;;;;;;15.43;8.27;;;;;;;;;;6049255;23;20308;-92
2023/09/23 02:37:40;;;;;;;15.05;7.50;;;;;;;;;;6065775;23;20159;-92
2023/09/23 02:40:47;;;;;;;15.82;8.30;;;;;;;;;;6050929;23;20260;-95
2023/09/23 02:43:53;;;;;;;16.13;7.72;;;;;;;;;;6050682;23;20624;-94
2023/09/23 02:46:58;;;;;;;15.30;7.78;;;;;;;;;;6068102;23;20171;-93
2023/09/23 02:50:03;;;;;;;13.85;8.02;;;;;;;;;;6052814;23;20261;-93
2023/09/23 02:53:10;;;;;;;12.60;7.60;;;;;;;;;;6065875;23;20262;-95
2023/09/23 02:56:18;;;;;;;14.00;7.57;;;;;;;;;;6050176;23;20237;-94
2023/09/23 02:59:29;;;;;;;13.65;7.80;;;;;;;;;;6064888;23;20192;-92
2023/09/23 03:02:35;;;;;;;12.05;7.05;;;;;;;;;;6065825;23;20175;-93
2023/09/23 03:05:44;;;;;;;13.75;7.63;;;;;;;;;;6050085;23;20630;-92
2023/09/23 03:08:53;;;;;;;12.63;7.88;;;;;;;;;;6049405;23;20240;-91
2023/09/23 03:12:01;;;;;;;15.65;8.05;;;;;;;;;;6067290;23;20224;-93
2023/09/23 03:15:14;;;;;;;16.45;9.63;;;;;;;;;;6050536;23;20171;-90
2023/09/23 03:18:27;;;;;;;17.83;9.32;;;;;;;;;;6068303;23;20179;-92
2023/09/23 03:21:35;;;;;;;14.25;8.45;;;;;;;;;;6051117;23;20237;-92
2023/09/23 03:24:40;;;;;;;14.50;8.73;;;;;;;;;;6067764;23;20175;-91
2023/09/23 03:27:48;;;;;;;16.00;8.25;;;;;;;;;;6067620;23;20261;-94
2023/09/23 03:31:00;;;;;;;17.35;8.23;;;;;;;;;;6051130;23;20155;-94
2023/09/23 03:34:05;;;;;;;18.30;9.25;;;;;;;;;;6059965;23;20654;-92
2023/09/23 03:37:11;;;;;;;48.28;23.85;;;;;;;;;;6063023;23;20283;-91
2023/09/23 03:40:19;;;;;;;14.95;8.55;;;;;;;;;;6080232;23;20237;-93
2023/09/23 03:43:25;;;;;;;16.98;8.57;;;;;;;;;;6078218;23;20499;-94
2023/09/23 03:46:31;;;;;;;15.60;8.35;;;;;;;;;;6078563;23;20154;-91
2023/09/23 03:49:36;;;;;;;17.67;8.77;;;;;;;;;;6079603;23;20198;-93
2023/09/23 03:52:41;;;;;;;17.23;9.15;;;;;;;;;;6064065;23;20174;-93
2023/09/23 03:55:47;;;;;;;18.63;8.48;;;;;;;;;;6079757;23;20162;-91
2023/09/23 03:58:55;;;;;;;19.38;9.48;;;;;;;;;;6080214;23;20175;-93
2023/09/23 04:02:00;;;;;;;17.90;8.65;;;;;;;;;;6080008;23;20178;-92
2023/09/23 04:05:06;;;;;;;19.58;9.50;;;;;;;;;;6081862;23;20242;-92
2023/09/23 04:08:12;;;;;;;17.48;9.73;;;;;;;;;;6080702;23;20198;-94
2023/09/23 04:11:18;;;;;;;18.13;9.07;;;;;;;;;;6081812;23;20174;-90
2023/09/23 04:14:26;;;;;;;18.95;10.40;;;;;;;;;;6080585;23;20178;-92
2023/09/23 04:17:31;;;;;;;21.65;9.75;;;;;;;;;;6082005;23;20167;-90
2023/09/23 04:20:36;;;;;;;19.92;10.13;;;;;;;;;;6081349;23;20175;-89
2023/09/23 04:23:42;;;;;;;19.98;10.23;;;;;;;;;;6082501;23;20182;-92
2023/09/23 04:26:47;;;;;;;22.52;10.35;;;;;;;;;;6082354;23;20275;-92
2023/09/23 04:29:54;;;;;;;19.90;10.20;;;;;;;;;;6081820;23;20251;-94
2023/09/23 04:33:00;;;;;;;20.63;9.85;;;;;;;;;;6080623;23;20167;-90
2023/09/23 04:36:09;;;;;;;17.90;10.00;;;;;;;;;;6064474;23;20625;-93
2023/09/23 04:39:14;;;;;;;17.02;9.38;;;;;;;;;;6079187;23;20691;-90
2023/09/23 04:42:21;;;;;;;17.38;9.55;;;;;;;;;;6079698;23;20170;-91
2023/09/23 04:45:27;;;;;;;19.42;9.43;;;;;;;;;;6065960;23;20622;-92
2023/09/23 04:48:32;;;;;;;17.48;9.15;;;;;;;;;;6081859;23;20201;-90
2023/09/23 04:51:38;;;;;;;18.77;9.05;;;;;;;;;;6082808;23;20171;-93
2023/09/23 04:54:44;;;;;;;17.15;9.55;;;;;;;;;;6081934;23;20174;-90
2023/09/23 04:57:50;;;;;;;16.05;8.07;;;;;;;;;;6079949;23;20178;-91
2023/09/23 05:00:58;;;;;;;13.95;8.38;;;;;;;;;;6064671;23;20631;-92
2023/09/23 05:04:08;;;;;;;15.70;8.27;;;;;;;;;;6079723;23;20511;-92
2023/09/23 05:07:13;;;;;;;17.77;8.10;;;;;;;;;;6083627;23;20184;-93
2023/09/23 05:10:19;;;;;;;14.07;7.55;;;;;;;;;;6080403;23;20170;-94
2023/09/23 05:13:24;;;;;;;14.52;8.32;;;;;;;;;;6079151;23;20170;-91
2023/09/23 05:16:31;;;;;;;13.40;7.15;;;;;;;;;;6082605;23;20171;-94
2023/09/23 05:19:36;;;;;;;11.32;5.95;;;;;;;;;;6080333;23;20174;-95
2023/09/23 05:22:42;;;;;;;8.50;5.28;;;;;;;;;;6081793;23;20170;-92
2023/09/23 05:25:47;;;;;;;8.88;5.10;;;;;;;;;;6081922;23;20494;-93
2023/09/23 05:28:52;;;;;;;9.63;4.18;;;;;;;;;;6081727;23;20198;-91
2023/09/23 05:32:00;;;;;;;9.27;4.68;;;;;;;;;;6082424;23;20177;-93
2023/09/23 05:35:09;;;;;;;7.88;4.57;;;;;;;;;;6083311;23;20198;-94
2023/09/23 05:38:14;;;;;;;6.07;3.90;;;;;;;;;;6082084;23;20211;-93
2023/09/23 05:41:23;;;;;;;6.75;3.95;;;;;;;;;;6083420;23;20166;-94
2023/09/23 05:44:29;;;;;;;9.57;4.32;;;;;;;;;;6081905;23;20246;-90
2023/09/23 05:47:36;;;;;;;6.13;3.72;;;;;;;;;;6082639;23;20170;-93
2023/09/23 05:50:41;;;;;;;6.78;3.28;;;;;;;;;;6081188;23;20175;-92
2023/09/23 05:53:47;;;;;;;7.00;3.33;;;;;;;;;;6081745;23;20219;-91
2023/09/23 05:56:52;;;;;;;6.43;3.38;;;;;;;;;;6082980;23;20195;-93
2023/09/23 05:59:57;;;;;;;8.68;3.45;;;;;;;;;;6083756;23;20175;-91
2023/09/23 06:03:04;;;;;;;6.07;3.33;;;;;;;;;;6083156;23;20191;-93
2023/09/23 06:06:09;;;;;;;7.22;4.18;;;;;;;;;;6081716;23;20246;-93
2023/09/23 07:19:48;;;;;;;3.00;2.00;;;;;;;;;;6098814;23;20228;-88
2023/09/23 07:22:53;;;;;;;5.13;2.03;;;;;;;;;;6121951;23;20177;-87
2023/09/23 07:25:59;;;;;;;5.20;2.13;;;;;;;;;;6122306;23;20181;-89
2023/09/23 07:29:05;;;;;;;8.27;2.20;;;;;;;;;;6121707;23;20197;-90
2023/09/23 07:32:10;;;;;;;4.32;2.10;;;;;;;;;;6122123;23;20224;-88
2023/09/23 07:35:17;;;;;;;3.63;2.22;;;;;;;;;;6122711;23;20208;-87
2023/09/23 07:38:22;;;;;;;4.75;2.22;;;;;;;;;;6124613;23;20176;-90
2023/09/23 07:41:27;;;;;;;5.07;2.42;;;;;;;;;;6123288;23;20176;-89
2023/09/23 07:44:33;;;;;;;5.40;2.85;;;;;;;;;;6123535;23;20629;-88
2023/09/23 07:47:38;;;;;;;4.45;2.60;;;;;;;;;;6124445;23;20172;-90
2023/09/23 07:50:45;;;;;;;9.43;3.53;;;;;;;;;;6123127;23;20173;-90
2023/09/23 07:53:53;;;;;;;5.88;3.10;;;;;;;;;;6123852;23;20185;-90
2023/09/23 07:56:58;;;;;;;8.32;3.75;;;;;;;;;;6122335;23;20170;-93
2023/09/23 08:00:04;;;;;;;11.50;3.42;;;;;;;;;;6120824;23;20184;-89
2023/09/23 08:03:16;;;;;;;9.60;4.50;;;;;;;;;;6139712;23;20184;-88
2023/09/23 08:06:23;;;;;;;7.70;3.80;;;;;;;;;;6121317;23;20173;-90
2023/09/23 08:09:32;;;;;;;3.42;2.47;;;;;;;;;;6124856;23;20201;-91
2023/09/23 08:12:37;;;;;;;4.65;2.63;;;;;;;;;;6122672;23;20225;-88
2023/09/23 08:15:43;;;;;;;4.28;2.50;;;;;;;;;;6124355;23;20169;-90
2023/09/23 08:18:48;;;;;;;4.22;2.28;;;;;;;;;;6123902;23;20202;-88
2023/09/23 08:21:55;;;;;;;3.90;2.20;;;;;;;;;;6120813;23;20170;-91
2023/09/23 08:25:00;;;;;;;3.20;2.08;;;;;;;;;;6121805;23;20218;-89
2023/09/23 08:28:06;;;;;;;5.68;2.78;;;;;;;;;;6123043;23;20398;-94
2023/09/23 08:31:12;;;;;;;3.10;1.80;;;;;;;;;;6120418;23;20172;-88
2023/09/23 08:34:17;;;;;;;5.45;2.20;;;;;;;;;;6122220;23;20245;-89
2023/09/23 08:37:24;;;;;;;2.85;1.85;;;;;;;;;;6122082;23;20177;-91
2023/09/23 08:40:30;;;;;;;3.47;1.80;;;;;;;;;;6119894;23;20185;-90
2023/09/23 08:43:39;;;;;;;3.60;2.03;;;;;;;;;;6122059;23;20238;-90
2023/09/23 08:46:45;;;;;;;4.65;1.52;;;;;;;;;;6122361;23;20185;-87
2023/09/23 08:49:52;;;;;;;3.83;1.63;;;;;;;;;;6121350;23;20197;-90
2023/09/23 08:52:59;;;;;;;3.13;1.70;;;;;;;;;;6121585;23;20293;-90
2023/09/23 08:56:06;;;;;;;3.88;1.40;;;;;;;;;;6122318;23;20225;-90
2023/09/23 08:59:30;;;;;;;3.97;1.30;;;;;;;;;;6122484;23;20173;-93
2023/09/23 09:02:36;;;;;;;4.85;1.42;;;;;;;;;;6123951;23;20366;-89
2023/09/23 09:05:43;;;;;;;3.60;1.52;;;;;;;;;;6123812;23;20492;-91
2023/09/23 09:08:50;;;;;;;2.85;1.25;;;;;;;;;;6122016;23;20193;-90
2023/09/23 09:11:58;;;;;;;2.75;1.48;;;;;;;;;;6124857;23;20294;-91
2023/09/23 09:15:03;;;;;;;4.95;1.27;;;;;;;;;;6124316;23;20182;-88
2023/09/23 09:18:08;;;;;;;1.85;0.90;;;;;;;;;;6123069;23;20173;-88
2023/09/23 09:21:13;;;;;;;1.92;1.00;;;;;;;;;;6123128;23;20169;-88
2023/09/23 09:24:22;;;;;;;3.47;1.23;;;;;;;;;;6122830;23;20290;-91
2023/09/23 09:27:29;;;;;;;2.92;0.98;;;;;;;;;;6120131;23;20609;-89
2023/09/23 09:30:34;;;;;;;2.25;0.90;;;;;;;;;;6119965;23;20192;-92
2023/09/23 09:33:40;;;;;;;2.58;0.80;;;;;;;;;;6119668;23;20213;-89
2023/09/23 09:36:46;;;;;;;1.30;0.90;;;;;;;;;;6121378;23;20169;-89
2023/09/23 09:39:56;;;;;;;1.20;0.80;;;;;;;;;;6121270;23;20290;-91
2023/09/23 09:43:01;;;;;;;3.55;0.90;;;;;;;;;;6122695;23;20177;-88
2023/09/23 09:46:08;;;;;;;1.17;0.80;;;;;;;;;;6122439;23;20263;-88
2023/09/23 09:49:16;;;;;;;1.73;1.05;;;;;;;;;;6120290;23;20193;-91
2023/09/23 09:52:23;;;;;;;1.77;1.05;;;;;;;;;;6121460;23;20217;-87
2023/09/23 09:55:34;;;;;;;3.33;0.60;;;;;;;;;;6121725;23;20169;-91
2023/09/23 09:58:40;;;;;;;2.33;0.80;;;;;;;;;;6120486;23;20177;-86
2023/09/23 10:01:45;;;;;;;1.85;0.90;;;;;;;;;;6121379;23;20629;-91
2023/09/23 10:04:53;;;;;;;4.68;1.17;;;;;;;;;;6121275;23;20245;-90
2023/09/23 10:07:59;;;;;;;1.27;0.90;;;;;;;;;;6121392;23;20222;-87
2023/09/23 10:11:09;;;;;;;1.90;0.95;;;;;;;;;;6120270;23;20193;-90
2023/09/23 10:14:16;;;;;;;4.13;0.85;;;;;;;;;;6122140;23;20221;-87
2023/09/23 10:17:23;;;;;;;2.28;0.80;;;;;;;;;;6122375;23;20202;-91
2023/09/23 10:20:33;;;;;;;1.17;0.80;;;;;;;;;;6111396;23;20193;-89
2023/09/23 10:23:40;;;;;;;3.35;0.80;;;;;;;;;;6092154;23;20170;-90
2023/09/23 10:26:46;;;;;;;2.08;0.77;;;;;;;;;;6108780;23;20174;-88
2023/09/23 10:29:51;;;;;;;1.10;0.77;;;;;;;;;;6108799;23;20197;-88
2023/09/23 10:32:57;;;;;;;4.43;1.30;;;;;;;;;;6110107;23;20177;-88
2023/09/23 10:36:03;;;;;;;1.95;0.90;;;;;;;;;;6110094;23;20206;-91
2023/09/23 10:39:19;;;;;;;3.05;0.80;;;;;;;;;;6108772;23;20166;-86
2023/09/23 10:42:26;;;;;;;3.13;1.00;;;;;;;;;;6109096;23;20219;-89
2023/09/23 10:45:31;;;;;;;4.45;1.00;;;;;;;;;;6109256;23;20223;-88
2023/09/23 10:48:36;;;;;;;4.72;0.95;;;;;;;;;;6108152;23;20174;-91
2023/09/23 10:51:42;;;;;;;3.15;1.08;;;;;;;;;;6107936;23;20210;-90
2023/09/23 10:54:49;;;;;;;2.92;0.82;;;;;;;;;;6108190;23;20177;-91
2023/09/23 10:57:55;;;;;;;2.97;1.00;;;;;;;;;;6109592;23;20269;-92
2023/09/23 11:01:00;;;;;;;4.80;1.20;;;;;;;;;;6109313;23;20166;-89
2023/09/23 11:04:06;;;;;;;1.63;0.90;;;;;;;;;;6110115;23;20173;-87
2023/09/23 11:07:11;;;;;;;2.58;0.90;;;;;;;;;;6111152;23;20174;-89
2023/09/23 11:10:17;;;;;;;0.82;0.70;;;;;;;;;;6110870;23;20268;-88
2023/09/23 11:13:24;;;;;;;2.35;1.13;;;;;;;;;;6112827;23;20641;-91
2023/09/23 11:16:29;;;;;;;0.82;0.63;;;;;;;;;;6110823;23;20181;-89
2023/09/23 11:19:34;;;;;;;4.05;0.77;;;;;;;;;;6108957;23;20655;-92
2023/09/23 11:22:43;;;;;;;1.98;0.80;;;;;;;;;;6112117;23;20174;-90
2023/09/23 11:25:49;;;;;;;0.93;0.65;;;;;;;;;;6112734;23;20713;-92
2023/09/23 11:28:56;;;;;;;2.58;1.27;;;;;;;;;;6112439;23;20174;-89
2023/09/23 11:32:02;;;;;;;1.77;0.70;;;;;;;;;;6110762;23;20183;-87
2023/09/23 11:35:08;;;;;;;2.28;0.93;;;;;;;;;;6114801;23;20281;-89
2023/09/23 11:38:13;;;;;;;1.58;0.77;;;;;;;;;;6109566;23;20177;-89
2023/09/23 11:41:19;;;;;;;1.08;0.68;;;;;;;;;;6112617;23;20250;-92
2023/09/23 11:44:27;;;;;;;1.38;0.88;;;;;;;;;;6119287;23;20157;-88
2023/09/23 11:47:33;;;;;;;2.70;0.88;;;;;;;;;;6113044;23;20177;-92
2023/09/23 11:50:38;;;;;;;1.33;0.65;;;;;;;;;;6113057;23;20637;-85
2023/09/23 11:53:44;;;;;;;0.90;0.70;;;;;;;;;;6110864;23;20174;-89
2023/09/23 11:56:50;;;;;;;1.55;0.70;;;;;;;;;;6108026;23;20180;-86
2023/09/23 11:59:57;;;;;;;1.33;0.57;;;;;;;;;;6109441;23;20169;-89
2023/09/23 12:03:03;;;;;;;1.60;0.60;;;;;;;;;;6109339;23;20177;-90
2023/09/23 12:06:09;;;;;;;1.15;0.60;;;;;;;;;;6108452;23;20174;-87
2023/09/23 12:09:14;;;;;;;0.85;0.63;;;;;;;;;;6107786;23;20195;-87
2023/09/23 12:12:19;;;;;;;2.80;0.77;;;;;;;;;;6106959;23;20657;-88
2023/09/23 12:15:26;;;;;;;1.02;0.50;;;;;;;;;;6109513;23;20173;-91
2023/09/23 12:18:30;;;;;;;0.60;0.50;;;;;;;;;;6111518;23;20174;-88
2023/09/23 12:21:36;;;;;;;1.70;0.80;;;;;;;;;;6120776;23;20169;-91
2023/09/23 12:24:41;;;;;;;1.83;0.73;;;;;;;;;;6119861;23;20173;-90
2023/09/23 12:27:47;;;;;;;1.75;0.70;;;;;;;;;;6123097;23;20166;-90
2023/09/23 12:30:53;;;;;;;2.22;0.80;;;;;;;;;;6123287;23;20196;-90
2023/09/23 12:33:58;;;;;;;2.47;0.90;;;;;;;;;;6123076;23;20252;-89
2023/09/23 12:37:04;;;;;;;1.00;0.65;;;;;;;;;;6121893;23;20165;-90
2023/09/23 12:43:29;;;;;;;1.88;0.73;;;;;;;;;;6123932;23;20529;-90
2023/09/23 12:46:35;;;;;;;1.65;0.75;;;;;;;;;;6123227;23;20158;-94
2023/09/23 12:49:40;;;;;;;1.45;0.68;;;;;;;;;;6122549;23;20173;-91
2023/09/23 12:52:45;;;;;;;1.95;0.80;;;;;;;;;;6123550;23;20229;-89
2023/09/23 12:55:50;;;;;;;1.00;0.70;;;;;;;;;;6121644;23;20173;-89
2023/09/23 12:58:55;;;;;;;2.65;0.90;;;;;;;;;;6124574;23;20288;-90
2023/09/23 13:02:02;;;;;;;2.10;0.70;;;;;;;;;;6122458;23;20213;-89
2023/09/23 13:05:08;;;;;;;1.00;0.70;;;;;;;;;;6121610;23;20188;-92
2023/09/23 13:08:14;;;;;;;0.80;0.68;;;;;;;;;;6120142;23;20173;-93
2023/09/23 13:11:21;;;;;;;1.02;0.65;;;;;;;;;;6121121;23;20197;-92
2023/09/23 13:14:26;;;;;;;1.02;0.70;;;;;;;;;;6120868;23;20171;-91
2023/09/23 13:17:34;;;;;;;1.77;0.90;;;;;;;;;;6121253;23;20245;-88
2023/09/23 13:20:39;;;;;;;1.70;0.88;;;;;;;;;;6122527;23;20196;-90
2023/09/23 13:23:44;;;;;;;1.75;0.75;;;;;;;;;;6121371;23;20177;-91
2023/09/23 13:26:49;;;;;;;0.80;0.60;;;;;;;;;;6121457;23;20173;-90
2023/09/23 13:29:55;;;;;;;2.33;0.80;;;;;;;;;;6119246;23;20213;-89
2023/09/23 13:33:01;;;;;;;1.55;0.73;;;;;;;;;;6118795;23;20632;-93
2023/09/23 13:36:07;;;;;;;2.70;0.80;;;;;;;;;;6119289;23;20189;-91
2023/09/23 13:39:12;;;;;;;1.83;0.70;;;;;;;;;;6120104;23;20173;-92
2023/09/23 13:42:17;;;;;;;1.25;0.75;;;;;;;;;;6123421;23;20779;-89
2023/09/23 13:45:23;;;;;;;1.27;0.70;;;;;;;;;;6122758;23;20173;-90
2023/09/23 13:48:31;;;;;;;2.45;0.70;;;;;;;;;;6122023;23;20172;-90
2023/09/23 13:51:36;;;;;;;3.45;0.73;;;;;;;;;;6121313;23;20200;-92
2023/09/23 13:54:49;;;;;;;2.95;1.10;;;;;;;;;;6119389;23;20181;-89
2023/09/23 13:57:54;;;;;;;1.02;0.55;;;;;;;;;;6118820;23;20177;-91
2023/09/23 14:00:59;;;;;;;0.93;0.77;;;;;;;;;;6119985;23;20239;-90
2023/09/23 14:04:07;;;;;;;0.77;0.60;;;;;;;;;;6120464;23;20498;-91
2023/09/23 14:07:13;;;;;;;0.90;0.80;;;;;;;;;;6120965;23;20302;-90
2023/09/23 14:10:18;;;;;;;2.90;0.98;;;;;;;;;;6120944;23;20250;-91
2023/09/23 14:13:23;;;;;;;1.55;0.80;;;;;;;;;;6121314;23;20236;-91
2023/09/23 14:16:29;;;;;;;1.73;0.95;;;;;;;;;;6125483;23;20157;-88
2023/09/23 14:19:37;;;;;;;1.83;0.73;;;;;;;;;;6112227;23;20198;-92
2023/09/23 14:22:45;;;;;;;1.42;0.70;;;;;;;;;;6111013;23;20157;-92
2023/09/23 14:25:51;;;;;;;1.00;0.55;;;;;;;;;;6110811;23;20177;-88
2023/09/23 14:28:57;;;;;;;1.08;0.70;;;;;;;;;;6109682;23;20173;-87
2023/09/23 14:32:03;;;;;;;2.05;0.90;;;;;;;;;;6109707;23;20572;-89
2023/09/23 14:35:11;;;;;;;1.40;0.55;;;;;;;;;;6110395;23;20178;-89
2023/09/23 14:38:17;;;;;;;5.80;0.80;;;;;;;;;;6128680;23;20179;-91
2023/09/23 14:41:22;;;;;;;1.38;0.60;;;;;;;;;;6110040;23;20183;-91
2023/09/23 14:44:31;;;;;;;4.70;0.98;;;;;;;;;;6106560;23;20174;-90
2023/09/23 14:47:38;;;;;;;2.80;0.80;;;;;;;;;;6107542;23;20174;-91
2023/09/23 14:50:45;;;;;;;1.65;1.10;;;;;;;;;;6110712;23;20242;-89
2023/09/23 14:53:53;;;;;;;3.63;1.23;;;;;;;;;;6112303;23;20166;-87
2023/09/23 14:57:00;;;;;;;0.93;0.70;;;;;;;;;;6115198;23;20265;-90
2023/09/23 15:00:05;;;;;;;2.22;0.90;;;;;;;;;;6113738;23;20211;-91
2023/09/23 15:03:10;;;;;;;1.25;0.70;;;;;;;;;;6110801;23;20177;-91
2023/09/23 15:06:17;;;;;;;1.75;0.80;;;;;;;;;;6112760;23;20177;-87
2023/09/23 15:09:23;;;;;;;0.75;0.60;;;;;;;;;;6110570;23;20170;-88
2023/09/23 15:12:28;;;;;;;0.82;0.70;;;;;;;;;;6109191;23;20243;-91
2023/09/23 15:15:33;;;;;;;2.75;0.93;;;;;;;;;;6112506;23;20195;-88
2023/09/23 15:18:39;;;;;;;1.30;0.70;;;;;;;;;;6117473;23;20209;-87
2023/09/23 15:21:46;;;;;;;2.45;1.10;;;;;;;;;;6122528;23;20174;-86
2023/09/23 15:24:51;;;;;;;1.80;0.80;;;;;;;;;;6119133;23;20653;-91
2023/09/23 15:27:57;;;;;;;2.03;1.00;;;;;;;;;;6122144;23;20225;-90
2023/09/23 15:31:02;;;;;;;1.30;0.90;;;;;;;;;;6119351;23;20260;-91
2023/09/23 15:34:07;;;;;;;2.15;1.00;;;;;;;;;;6118977;23;20598;-90
2023/09/23 15:37:14;;;;;;;2.28;1.00;;;;;;;;;;6118944;23;20174;-90
2023/09/23 15:43:38;;;;;;;1.98;1.00;;;;;;;;;;6124060;23;20153;-91
2023/09/23 15:46:44;;;;;;;5.55;1.48;;;;;;;;;;6122348;23;20506;-90
2023/09/23 15:49:49;;;;;;;2.03;1.00;;;;;;;;;;6121069;23;20217;-89
2023/09/23 15:52:56;;;;;;;3.75;1.00;;;;;;;;;;6121191;23;20262;-89
2023/09/23 15:56:01;;;;;;;1.80;1.25;;;;;;;;;;6122114;23;20196;-88
2023/09/23 15:59:06;;;;;;;50.58;25.83;;;;;;;;;;6121465;23;20501;-91
2023/09/23 16:02:11;;;;;;;4.22;2.00;;;;;;;;;;6122007;23;20164;-93
2023/09/23 16:05:16;;;;;;;2.40;1.40;;;;;;;;;;6121932;23;20270;-89
2023/09/23 16:08:23;;;;;;;3.28;1.70;;;;;;;;;;6120642;23;20170;-91
2023/09/23 16:11:32;;;;;;;4.53;1.20;;;;;;;;;;6120835;23;20212;-88
2023/09/23 16:14:41;;;;;;;6.40;1.48;;;;;;;;;;6126572;23;20173;-91
2023/09/23 16:21:06;;;;;;;3.45;1.25;;;;;;;;;;6117822;23;20227;-88
2023/09/23 16:24:27;;;;;;;4.28;1.50;;;;;;;;;;6116701;23;20203;-88
2023/09/23 16:27:37;;;;;;;2.65;1.45;;;;;;;;;;6114545;23;20170;-87
2023/09/23 16:30:46;;;;;;;6.97;1.38;;;;;;;;;;6117337;23;20205;-89
2023/09/23 16:33:56;;;;;;;4.50;1.50;;;;;;;;;;6112388;23;20556;-88
2023/09/23 16:37:03;;;;;;;3.97;1.50;;;;;;;;;;6112555;23;20300;-90
2023/09/23 16:40:10;;;;;;;3.63;1.30;;;;;;;;;;6112065;23;20252;-87
2023/09/23 16:43:20;;;;;;;4.32;2.15;;;;;;;;;;6112287;23;20190;-92
2023/09/23 16:46:27;;;;;;;2.70;1.00;;;;;;;;;;6115856;23;20174;-86
2023/09/23 16:49:33;;;;;;;4.45;1.70;;;;;;;;;;6111333;23;20178;-91
2023/09/23 16:52:39;;;;;;;9.93;1.73;;;;;;;;;;6107558;23;20189;-89
2023/09/23 16:55:46;;;;;;;5.63;1.50;;;;;;;;;;6108435;23;20202;-88
2023/09/23 16:58:54;;;;;;;3.08;1.30;;;;;;;;;;6093734;23;20601;-87
2023/09/23 17:01:58;;;;;;;3.25;0.93;;;;;;;;;;6110390;23;20174;-90
2023/09/23 17:05:04;;;;;;;4.88;1.60;;;;;;;;;;6110594;23;20173;-90
2023/09/23 17:08:09;;;;;;;3.75;1.60;;;;;;;;;;6108135;23;20711;-89
2023/09/23 17:11:14;;;;;;;6.03;1.55;;;;;;;;;;6109365;23;20320;-88
2023/09/23 17:14:21;;;;;;;4.90;1.30;;;;;;;;;;6110638;23;20218;-87
2023/09/23 17:17:27;;;;;;;8.63;1.58;;;;;;;;;;6110098;23;20165;-90
2023/09/23 17:20:32;;;;;;;3.85;1.42;;;;;;;;;;6109962;23;20299;-88
2023/09/23 17:23:39;;;;;;;2.63;1.30;;;;;;;;;;6111197;23;20231;-88
2023/09/23 17:26:45;;;;;;;4.78;2.00;;;;;;;;;;6111459;23;20166;-89
2023/09/23 17:29:52;;;;;;;3.22;1.10;;;;;;;;;;6109947;23;20214;-86
2023/09/23 17:36:18;;;;;;;5.47;2.65;;;;;;;;;;6118431;23;20186;-87
2023/09/23 17:39:46;;;;;;;11.63;5.35;;;;;;;;;;6116309;23;20171;-89
2023/09/23 17:43:01;;;;;;;5.88;2.30;;;;;;;;;;6117731;23;20202;-88
2023/09/23 17:46:08;;;;;;;10.82;1.98;;;;;;;;;;6116315;23;20177;-89
2023/09/23 17:49:15;;;;;;;8.32;2.47;;;;;;;;;;6118267;23;20166;-88
2023/09/23 17:52:21;;;;;;;4.32;2.20;;;;;;;;;;6118096;23;20269;-88
2023/09/23 17:55:28;;;;;;;6.38;2.50;;;;;;;;;;6115637;23;20345;-91
2023/09/23 17:58:34;;;;;;;14.30;2.95;;;;;;;;;;6117025;23;20174;-88
2023/09/23 18:01:40;;;;;;;9.80;2.90;;;;;;;;;;6111570;23;20173;-91
2023/09/23 18:04:46;;;;;;;5.22;2.28;;;;;;;;;;6115261;23;20178;-88
2023/09/23 18:07:54;;;;;;;6.75;2.50;;;;;;;;;;6110954;23;20178;-90
2023/09/23 18:11:00;;;;;;;5.45;2.60;;;;;;;;;;6110609;23;20279;-91
2023/09/23 18:14:06;;;;;;;4.05;2.28;;;;;;;;;;6109258;23;20177;-89
2023/09/23 18:17:14;;;;;;;4.55;2.35;;;;;;;;;;6110411;23;20157;-91
2023/09/23 18:20:23;;;;;;;5.70;2.38;;;;;;;;;;6110896;23;20193;-88
2023/09/23 18:23:29;;;;;;;8.77;3.80;;;;;;;;;;6110633;23;20563;-90
2023/09/23 18:26:34;;;;;;;6.45;2.80;;;;;;;;;;6109903;23;20169;-88
2023/09/23 18:29:39;;;;;;;7.45;2.63;;;;;;;;;;6108291;23;20177;-88
2023/09/23 18:32:46;;;;;;;5.40;2.33;;;;;;;;;;6110309;23;20246;-90
2023/09/23 18:35:51;;;;;;;3.72;1.80;;;;;;;;;;6109147;23;20853;-90
2023/09/23 18:38:56;;;;;;;2.72;1.50;;;;;;;;;;6109190;23;20185;-89
2023/09/23 18:42:01;;;;;;;4.55;1.88;;;;;;;;;;6109235;23;20166;-90
2023/09/23 18:45:07;;;;;;;3.65;2.05;;;;;;;;;;6108386;23;20166;-87
2023/09/23 18:48:16;;;;;;;4.10;1.67;;;;;;;;;;6124974;23;20157;-90
2023/09/23 18:51:21;;;;;;;7.18;3.70;;;;;;;;;;6126024;23;20193;-90
2023/09/23 18:54:27;;;;;;;4.88;2.00;;;;;;;;;;6110623;23;20218;-89
2023/09/23 18:57:33;;;;;;;5.97;2.20;;;;;;;;;;6107800;23;20182;-89
2023/09/23 19:00:38;;;;;;;4.13;1.77;;;;;;;;;;6108714;23;20239;-90
2023/09/23 19:03:45;;;;;;;4.25;1.95;;;;;;;;;;6109946;23;20215;-92
2023/09/23 19:06:50;;;;;;;3.13;1.80;;;;;;;;;;6112153;23;20173;-91
2023/09/23 19:09:55;;;;;;;3.13;1.60;;;;;;;;;;6112673;23;20613;-92
2023/09/23 19:13:02;;;;;;;2.90;1.80;;;;;;;;;;6129543;23;20193;-93
2023/09/23 19:16:08;;;;;;;8.10;2.10;;;;;;;;;;6111843;23;20157;-91
2023/09/23 19:19:15;;;;;;;6.68;1.83;;;;;;;;;;6113602;23;20242;-90
2023/09/23 19:22:20;;;;;;;4.70;1.83;;;;;;;;;;6114265;23;20242;-92
2023/09/23 19:25:26;;;;;;;3.72;1.70;;;;;;;;;;6114998;23;20211;-93
2023/09/23 19:28:31;;;;;;;3.10;1.77;;;;;;;;;;6114791;23;20294;-95
2023/09/23 19:31:37;;;;;;;6.50;1.70;;;;;;;;;;6114469;23;20214;-91
2023/09/23 19:34:44;;;;;;;4.72;2.22;;;;;;;;;;6111196;23;20177;-91
2023/09/23 19:37:50;;;;;;;6.18;2.28;;;;;;;;;;6112214;23;20154;-94
2023/09/23 19:40:57;;;;;;;4.00;1.88;;;;;;;;;;6113638;23;20170;-93
2023/09/23 19:44:02;;;;;;;5.38;1.92;;;;;;;;;;6112579;23;20182;-94
2023/09/23 19:47:07;;;;;;;5.10;1.83;;;;;;;;;;6111351;23;20174;-92
2023/09/23 19:50:14;;;;;;;2.97;1.42;;;;;;;;;;6110689;23;20170;-92
2023/09/23 19:53:21;;;;;;;2.25;1.42;;;;;;;;;;6111307;23;20225;-90
2023/09/23 19:56:28;;;;;;;4.70;1.67;;;;;;;;;;6095534;23;20169;-93